Terminal Aerodrome Forecast
Issued by NWS Jackson, KY

Home | Current Version | Previous Version | Text Only | Print | Product List | Glossary On
Versions: 1 2 3 4 5 6 7 8 9 10 11 12 13 14 15 16 17 18 19 20 21 22 23 24 25 26 27 28 29 30
038
FTUS43 KJKL 181122
TAFJKL
TAF
KJKL 181122Z 1812/1912 20008KT P6SM BKN040 OVC090 WS020/20045KT
     FM181600 19011G24KT P6SM -SHRA BKN050 WS020/20050KT
     FM181800 22013G33KT P6SM SHRA OVC020
     FM181900 22013G30KT 4SM SHRA OVC017
     FM182300 23012G28KT P6SM OVC015=

USA.gov is the U.S. government's official web portal to all federal, state and local government web resources and services.